sensor_id;sensor_type;location;lat;lon;timestamp;pressure;altitude;pressure_sealevel;temperature;humidity
84190;BME280;74321;53.406;8.146;2024-03-07T00:01:08;102991.25;;;2.52;100.00
84190;BME280;74321;53.406;8.146;2024-03-07T00:06:10;102992.72;;;2.48;100.00
84190;BME280;74321;53.406;8.146;2024-03-07T00:11:12;103001.38;;;2.52;100.00
84190;BME280;74321;53.406;8.146;2024-03-07T00:16:14;103006.44;;;2.52;100.00
84190;BME280;74321;53.406;8.146;2024-03-07T00:21:16;103002.94;;;2.50;100.00
84190;BME280;74321;53.406;8.146;2024-03-07T00:26:18;102990.69;;;2.43;100.00
84190;BME280;74321;53.406;8.146;2024-03-07T00:31:21;103006.25;;;2.49;100.00
84190;BME280;74321;53.406;8.146;2024-03-07T00:36:23;102991.47;;;2.42;100.00
84190;BME280;74321;53.406;8.146;2024-03-07T00:41:25;102993.28;;;2.44;100.00
84190;BME280;74321;53.406;8.146;2024-03-07T00:46:28;102982.69;;;2.37;100.00
84190;BME280;74321;53.406;8.146;2024-03-07T00:51:31;102983.06;;;2.30;100.00
84190;BME280;74321;53.406;8.146;2024-03-07T00:56:33;102974.47;;;2.14;100.00
84190;BME280;74321;53.406;8.146;2024-03-07T01:01:35;102978.47;;;2.11;100.00
84190;BME280;74321;53.406;8.146;2024-03-07T01:06:39;102984.13;;;2.20;100.00
84190;BME280;74321;53.406;8.146;2024-03-07T01:11:44;102981.47;;;2.05;100.00
84190;BME280;74321;53.406;8.146;2024-03-07T01:16:50;102978.66;;;2.01;100.00
84190;BME280;74321;53.406;8.146;2024-03-07T01:21:52;102980.00;;;1.95;100.00
84190;BME280;74321;53.406;8.146;2024-03-07T01:26:54;102986.59;;;1.93;100.00
84190;BME280;74321;53.406;8.146;2024-03-07T01:31:56;102982.50;;;1.82;100.00
84190;BME280;74321;53.406;8.146;2024-03-07T01:36:58;102980.00;;;1.71;100.00
84190;BME280;74321;53.406;8.146;2024-03-07T01:42:00;102968.88;;;1.55;100.00
84190;BME280;74321;53.406;8.146;2024-03-07T01:47:02;102965.31;;;1.40;100.00
84190;BME280;74321;53.406;8.146;2024-03-07T01:52:05;102963.34;;;0.99;100.00
84190;BME280;74321;53.406;8.146;2024-03-07T01:57:07;102969.53;;;0.79;100.00
84190;BME280;74321;53.406;8.146;2024-03-07T02:02:10;102969.66;;;0.69;100.00
84190;BME280;74321;53.406;8.146;2024-03-07T02:07:12;102964.72;;;0.59;100.00
84190;BME280;74321;53.406;8.146;2024-03-07T02:12:14;102953.22;;;0.51;100.00
84190;BME280;74321;53.406;8.146;2024-03-07T02:17:16;102941.25;;;0.37;100.00
84190;BME280;74321;53.406;8.146;2024-03-07T02:22:19;102952.88;;;0.35;100.00
84190;BME280;74321;53.406;8.146;2024-03-07T02:27:21;102949.81;;;0.39;100.00
84190;BME280;74321;53.406;8.146;2024-03-07T02:32:23;102953.09;;;0.49;100.00
84190;BME280;74321;53.406;8.146;2024-03-07T02:37:25;102954.75;;;0.37;100.00
84190;BME280;74321;53.406;8.146;2024-03-07T02:42:27;102952.44;;;0.28;100.00
84190;BME280;74321;53.406;8.146;2024-03-07T02:47:29;102969.41;;;0.31;100.00
84190;BME280;74321;53.406;8.146;2024-03-07T02:52:32;102969.09;;;0.38;100.00
84190;BME280;74321;53.406;8.146;2024-03-07T02:57:34;102965.81;;;0.39;100.00
84190;BME280;74321;53.406;8.146;2024-03-07T03:02:36;102933.47;;;0.22;100.00
84190;BME280;74321;53.406;8.146;2024-03-07T03:07:38;102964.81;;;0.49;100.00
84190;BME280;74321;53.406;8.146;2024-03-07T03:12:40;102950.22;;;0.56;100.00
84190;BME280;74321;53.406;8.146;2024-03-07T03:17:42;102958.25;;;0.63;100.00
84190;BME280;74321;53.406;8.146;2024-03-07T03:22:44;102948.34;;;0.66;100.00
84190;BME280;74321;53.406;8.146;2024-03-07T03:27:50;102940.56;;;0.74;100.00
84190;BME280;74321;53.406;8.146;2024-03-07T03:32:52;102942.75;;;0.81;100.00
84190;BME280;74321;53.406;8.146;2024-03-07T03:37:54;102932.34;;;0.77;100.00
84190;BME280;74321;53.406;8.146;2024-03-07T03:42:56;102932.09;;;0.86;100.00
84190;BME280;74321;53.406;8.146;2024-03-07T03:47:58;102935.59;;;0.88;100.00
84190;BME280;74321;53.406;8.146;2024-03-07T03:53:00;102927.94;;;0.86;100.00
84190;BME280;74321;53.406;8.146;2024-03-07T03:58:05;102943.41;;;1.16;100.00
84190;BME280;74321;53.406;8.146;2024-03-07T04:03:07;102938.63;;;1.07;100.00
84190;BME280;74321;53.406;8.146;2024-03-07T04:08:10;102939.72;;;1.10;100.00
84190;BME280;74321;53.406;8.146;2024-03-07T04:13:12;102947.94;;;1.20;100.00
84190;BME280;74321;53.406;8.146;2024-03-07T04:18:15;102945.16;;;1.28;100.00
84190;BME280;74321;53.406;8.146;2024-03-07T04:23:17;102942.09;;;1.21;100.00
84190;BME280;74321;53.406;8.146;2024-03-07T04:28:20;102942.97;;;1.21;100.00
84190;BME280;74321;53.406;8.146;2024-03-07T04:33:24;102949.53;;;1.31;100.00
84190;BME280;74321;53.406;8.146;2024-03-07T04:38:26;102947.63;;;1.40;100.00
84190;BME280;74321;53.406;8.146;2024-03-07T04:43:30;102942.47;;;1.38;100.00
84190;BME280;74321;53.406;8.146;2024-03-07T04:48:32;102938.19;;;1.37;100.00
84190;BME280;74321;53.406;8.146;2024-03-07T04:53:35;102925.16;;;1.31;100.00
84190;BME280;74321;53.406;8.146;2024-03-07T04:58:40;102938.09;;;1.36;100.00
84190;BME280;74321;53.406;8.146;2024-03-07T05:03:43;102942.78;;;1.43;100.00
84190;BME280;74321;53.406;8.146;2024-03-07T05:08:45;102927.56;;;1.30;100.00
84190;BME280;74321;53.406;8.146;2024-03-07T05:13:49;102939.28;;;1.41;100.00
84190;BME280;74321;53.406;8.146;2024-03-07T05:18:51;102946.38;;;1.47;100.00
84190;BME280;74321;53.406;8.146;2024-03-07T05:23:54;102941.44;;;1.48;100.00
84190;BME280;74321;53.406;8.146;2024-03-07T05:28:56;102927.53;;;1.42;100.00
84190;BME280;74321;53.406;8.146;2024-03-07T05:33:58;102931.41;;;1.36;100.00
84190;BME280;74321;53.406;8.146;2024-03-07T05:39:01;102936.78;;;1.41;100.00
84190;BME280;74321;53.406;8.146;2024-03-07T05:44:10;102937.25;;;1.49;100.00
84190;BME280;74321;53.406;8.146;2024-03-07T05:49:13;102949.00;;;1.48;100.00
84190;BME280;74321;53.406;8.146;2024-03-07T05:54:15;102941.75;;;1.53;100.00
84190;BME280;74321;53.406;8.146;2024-03-07T05:59:17;102953.16;;;1.59;100.00
84190;BME280;74321;53.406;8.146;2024-03-07T06:04:19;102932.53;;;1.53;100.00
84190;BME280;74321;53.406;8.146;2024-03-07T06:09:22;102933.31;;;1.52;100.00
84190;BME280;74321;53.406;8.146;2024-03-07T06:14:25;102946.38;;;1.72;100.00
84190;BME280;74321;53.406;8.146;2024-03-07T06:19:27;102930.69;;;1.64;100.00
84190;BME280;74321;53.406;8.146;2024-03-07T06:24:30;102952.53;;;1.75;100.00
84190;BME280;74321;53.406;8.146;2024-03-07T06:29:33;102947.09;;;1.82;100.00
84190;BME280;74321;53.406;8.146;2024-03-07T06:34:35;102953.63;;;1.92;100.00
84190;BME280;74321;53.406;8.146;2024-03-07T06:39:37;102931.34;;;1.86;100.00
84190;BME280;74321;53.406;8.146;2024-03-07T06:44:39;102949.28;;;2.03;100.00
84190;BME280;74321;53.406;8.146;2024-03-07T06:49:41;102954.25;;;2.14;100.00
84190;BME280;74321;53.406;8.146;2024-03-07T06:54:43;102961.66;;;2.24;100.00
84190;BME280;74321;53.406;8.146;2024-03-07T06:59:46;102944.94;;;2.27;100.00
84190;BME280;74321;53.406;8.146;2024-03-07T07:04:48;102956.13;;;2.43;100.00
84190;BME280;74321;53.406;8.146;2024-03-07T07:09:50;102947.38;;;2.51;100.00
84190;BME280;74321;53.406;8.146;2024-03-07T07:14:54;102950.56;;;2.62;100.00
84190;BME280;74321;53.406;8.146;2024-03-07T07:19:57;102956.41;;;2.74;100.00
84190;BME280;74321;53.406;8.146;2024-03-07T07:25:00;102955.41;;;2.86;100.00
84190;BME280;74321;53.406;8.146;2024-03-07T07:30:02;102940.81;;;2.81;100.00
84190;BME280;74321;53.406;8.146;2024-03-07T07:35:05;102954.59;;;3.00;100.00
84190;BME280;74321;53.406;8.146;2024-03-07T07:40:19;102936.34;;;3.05;100.00
84190;BME280;74321;53.406;8.146;2024-03-07T07:45:22;102939.75;;;3.06;100.00
84190;BME280;74321;53.406;8.146;2024-03-07T07:50:24;102949.31;;;3.10;100.00
84190;BME280;74321;53.406;8.146;2024-03-07T07:55:27;102943.56;;;3.13;100.00
84190;BME280;74321;53.406;8.146;2024-03-07T08:00:30;102940.81;;;3.23;100.00
84190;BME280;74321;53.406;8.146;2024-03-07T08:05:34;102936.28;;;3.32;100.00
84190;BME280;74321;53.406;8.146;2024-03-07T08:10:38;102941.38;;;3.32;100.00
84190;BME280;74321;53.406;8.146;2024-03-07T08:15:45;102920.56;;;3.37;100.00
84190;BME280;74321;53.406;8.146;2024-03-07T08:20:50;102924.09;;;3.54;100.00
84190;BME280;74321;53.406;8.146;2024-03-07T08:25:57;102929.03;;;3.66;100.00
84190;BME280;74321;53.406;8.146;2024-03-07T08:30:59;102915.72;;;3.70;100.00
84190;BME280;74321;53.406;8.146;2024-03-07T08:36:01;102910.31;;;3.79;100.00
84190;BME280;74321;53.406;8.146;2024-03-07T08:41:03;102892.47;;;3.77;100.00
84190;BME280;74321;53.406;8.146;2024-03-07T08:46:05;102902.78;;;4.10;100.00
84190;BME280;74321;53.406;8.146;2024-03-07T08:51:07;102920.72;;;3.98;100.00
84190;BME280;74321;53.406;8.146;2024-03-07T08:56:09;102922.97;;;4.23;100.00
84190;BME280;74321;53.406;8.146;2024-03-07T09:01:11;102918.50;;;4.04;100.00
84190;BME280;74321;53.406;8.146;2024-03-07T09:06:13;102914.72;;;4.27;100.00
84190;BME280;74321;53.406;8.146;2024-03-07T09:11:15;102927.13;;;4.37;100.00
84190;BME280;74321;53.406;8.146;2024-03-07T09:16:17;102903.28;;;4.04;100.00
84190;BME280;74321;53.406;8.146;2024-03-07T09:21:20;102912.06;;;4.09;100.00
84190;BME280;74321;53.406;8.146;2024-03-07T09:26:23;102915.38;;;3.93;100.00
84190;BME280;74321;53.406;8.146;2024-03-07T09:31:25;102922.91;;;4.07;100.00
84190;BME280;74321;53.406;8.146;2024-03-07T09:36:27;102912.94;;;4.56;100.00
84190;BME280;74321;53.406;8.146;2024-03-07T09:41:29;102917.72;;;4.66;100.00
84190;BME280;74321;53.406;8.146;2024-03-07T09:46:32;102906.88;;;5.33;100.00
84190;BME280;74321;53.406;8.146;2024-03-07T09:51:35;102912.38;;;5.08;100.00
84190;BME280;74321;53.406;8.146;2024-03-07T09:56:38;102909.44;;;5.17;100.00
84190;BME280;74321;53.406;8.146;2024-03-07T10:01:41;102906.78;;;5.64;100.00
84190;BME280;74321;53.406;8.146;2024-03-07T10:06:47;102907.59;;;5.81;100.00
84190;BME280;74321;53.406;8.146;2024-03-07T10:11:57;102908.69;;;6.56;100.00
84190;BME280;74321;53.406;8.146;2024-03-07T10:16:59;102894.41;;;8.40;100.00
84190;BME280;74321;53.406;8.146;2024-03-07T10:22:01;102893.56;;;10.10;100.00
84190;BME280;74321;53.406;8.146;2024-03-07T10:27:08;102896.28;;;9.38;100.00
84190;BME280;74321;53.406;8.146;2024-03-07T10:32:12;102898.97;;;9.43;100.00
84190;BME280;74321;53.406;8.146;2024-03-07T10:37:15;102878.38;;;9.38;100.00
84190;BME280;74321;53.406;8.146;2024-03-07T10:42:20;102884.41;;;8.25;100.00
84190;BME280;74321;53.406;8.146;2024-03-07T10:47:27;102891.78;;;9.82;100.00
84190;BME280;74321;53.406;8.146;2024-03-07T10:52:59;102877.72;;;11.10;100.00
84190;BME280;74321;53.406;8.146;2024-03-07T11:03:15;102876.50;;;10.97;100.00
84190;BME280;74321;53.406;8.146;2024-03-07T11:08:18;102870.75;;;11.72;100.00
84190;BME280;74321;53.406;8.146;2024-03-07T11:13:21;102868.78;;;10.37;100.00
84190;BME280;74321;53.406;8.146;2024-03-07T11:18:23;102879.66;;;8.34;100.00
84190;BME280;74321;53.406;8.146;2024-03-07T11:23:29;102871.41;;;8.19;100.00
84190;BME280;74321;53.406;8.146;2024-03-07T11:28:39;102864.50;;;7.33;100.00
84190;BME280;74321;53.406;8.146;2024-03-07T11:33:41;102864.38;;;10.06;100.00
84190;BME280;74321;53.406;8.146;2024-03-07T11:38:49;102858.91;;;9.94;100.00
84190;BME280;74321;53.406;8.146;2024-03-07T11:43:52;102848.69;;;9.96;100.00
84190;BME280;74321;53.406;8.146;2024-03-07T11:48:57;102835.13;;;10.55;100.00
84190;BME280;74321;53.406;8.146;2024-03-07T11:54:01;102835.19;;;8.98;100.00
84190;BME280;74321;53.406;8.146;2024-03-07T11:59:03;102843.97;;;7.93;100.00
84190;BME280;74321;53.406;8.146;2024-03-07T12:04:06;102823.34;;;7.86;100.00
84190;BME280;74321;53.406;8.146;2024-03-07T12:09:08;102841.06;;;8.04;100.00
84190;BME280;74321;53.406;8.146;2024-03-07T12:14:18;102826.44;;;7.58;100.00
84190;BME280;74321;53.406;8.146;2024-03-07T12:19:20;102803.31;;;9.12;100.00
84190;BME280;74321;53.406;8.146;2024-03-07T12:24:22;102816.50;;;7.65;100.00
84190;BME280;74321;53.406;8.146;2024-03-07T12:29:25;102814.19;;;7.50;100.00
84190;BME280;74321;53.406;8.146;2024-03-07T12:34:28;102792.38;;;8.44;100.00
84190;BME280;74321;53.406;8.146;2024-03-07T12:39:33;102800.63;;;7.94;100.00
84190;BME280;74321;53.406;8.146;2024-03-07T12:44:50;102783.06;;;8.24;100.00
84190;BME280;74321;53.406;8.146;2024-03-07T12:49:52;102786.75;;;9.53;100.00
84190;BME280;74321;53.406;8.146;2024-03-07T12:54:54;102786.72;;;8.31;100.00
84190;BME280;74321;53.406;8.146;2024-03-07T12:59:57;102782.91;;;7.54;100.00
84190;BME280;74321;53.406;8.146;2024-03-07T13:04:59;102767.31;;;7.69;100.00
84190;BME280;74321;53.406;8.146;2024-03-07T13:10:03;102761.94;;;8.51;100.00
84190;BME280;74321;53.406;8.146;2024-03-07T13:15:05;102762.84;;;7.63;100.00
84190;BME280;74321;53.406;8.146;2024-03-07T13:20:12;102760.31;;;8.30;100.00
84190;BME280;74321;53.406;8.146;2024-03-07T13:25:20;102747.59;;;10.73;100.00
84190;BME280;74321;53.406;8.146;2024-03-07T13:30:26;102735.75;;;13.72;87.78
84190;BME280;74321;53.406;8.146;2024-03-07T13:35:31;102733.94;;;12.19;100.00
84190;BME280;74321;53.406;8.146;2024-03-07T13:40:34;102728.81;;;13.65;82.52
84190;BME280;74321;53.406;8.146;2024-03-07T13:45:41;102727.28;;;13.24;66.83
84190;BME280;74321;53.406;8.146;2024-03-07T13:50:45;102702.81;;;13.50;76.97
84190;BME280;74321;53.406;8.146;2024-03-07T14:01:48;102705.63;;;11.03;98.87
84190;BME280;74321;53.406;8.146;2024-03-07T14:29:43;102699.56;;;9.20;100.00
84190;BME280;74321;53.406;8.146;2024-03-07T14:35:11;102674.34;;;10.50;92.05
84190;BME280;74321;53.406;8.146;2024-03-07T14:40:17;102677.03;;;10.54;93.52
84190;BME280;74321;53.406;8.146;2024-03-07T14:45:21;102669.72;;;8.94;100.00
84190;BME280;74321;53.406;8.146;2024-03-07T14:50:27;102683.75;;;7.41;100.00
84190;BME280;74321;53.406;8.146;2024-03-07T14:55:31;102680.78;;;7.75;100.00
84190;BME280;74321;53.406;8.146;2024-03-07T15:00:34;102666.66;;;7.38;100.00
84190;BME280;74321;53.406;8.146;2024-03-07T15:05:43;102674.88;;;6.10;100.00
84190;BME280;74321;53.406;8.146;2024-03-07T15:11:07;102684.91;;;5.70;100.00
84190;BME280;74321;53.406;8.146;2024-03-07T15:16:15;102685.28;;;5.24;100.00
84190;BME280;74321;53.406;8.146;2024-03-07T15:21:37;102681.50;;;5.52;100.00
84190;BME280;74321;53.406;8.146;2024-03-07T15:26:41;102670.25;;;5.29;100.00
84190;BME280;74321;53.406;8.146;2024-03-07T15:31:49;102676.63;;;5.21;100.00
84190;BME280;74321;53.406;8.146;2024-03-07T15:37:00;102676.59;;;4.85;100.00
84190;BME280;74321;53.406;8.146;2024-03-07T15:42:05;102658.75;;;4.84;100.00
84190;BME280;74321;53.406;8.146;2024-03-07T15:47:11;102644.88;;;4.77;100.00
84190;BME280;74321;53.406;8.146;2024-03-07T15:52:13;102654.19;;;4.94;100.00
84190;BME280;74321;53.406;8.146;2024-03-07T15:57:16;102634.81;;;4.62;100.00
84190;BME280;74321;53.406;8.146;2024-03-07T16:02:18;102646.66;;;4.62;100.00
84190;BME280;74321;53.406;8.146;2024-03-07T16:07:21;102650.41;;;4.52;100.00
84190;BME280;74321;53.406;8.146;2024-03-07T16:12:23;102649.53;;;4.51;100.00
84190;BME280;74321;53.406;8.146;2024-03-07T16:17:25;102636.97;;;4.55;100.00
84190;BME280;74321;53.406;8.146;2024-03-07T16:22:27;102635.72;;;4.46;100.00
84190;BME280;74321;53.406;8.146;2024-03-07T16:27:29;102638.91;;;4.42;100.00
84190;BME280;74321;53.406;8.146;2024-03-07T16:32:35;102647.25;;;4.56;100.00
84190;BME280;74321;53.406;8.146;2024-03-07T16:37:38;102634.72;;;4.43;100.00
84190;BME280;74321;53.406;8.146;2024-03-07T16:42:47;102636.78;;;4.34;100.00
84190;BME280;74321;53.406;8.146;2024-03-07T16:47:53;102624.09;;;4.34;100.00
84190;BME280;74321;53.406;8.146;2024-03-07T16:52:58;102641.06;;;4.35;100.00
84190;BME280;74321;53.406;8.146;2024-03-07T16:58:00;102638.06;;;4.26;100.00
84190;BME280;74321;53.406;8.146;2024-03-07T17:03:08;102643.59;;;4.18;100.00
84190;BME280;74321;53.406;8.146;2024-03-07T17:08:12;102640.75;;;4.12;100.00
84190;BME280;74321;53.406;8.146;2024-03-07T17:13:16;102637.19;;;4.09;100.00
84190;BME280;74321;53.406;8.146;2024-03-07T17:18:18;102641.16;;;4.04;100.00
84190;BME280;74321;53.406;8.146;2024-03-07T17:23:25;102647.81;;;4.02;100.00
84190;BME280;74321;53.406;8.146;2024-03-07T17:28:28;102641.25;;;3.89;100.00
84190;BME280;74321;53.406;8.146;2024-03-07T17:33:31;102648.41;;;3.65;100.00
84190;BME280;74321;53.406;8.146;2024-03-07T17:38:33;102649.00;;;3.30;100.00
84190;BME280;74321;53.406;8.146;2024-03-07T17:43:35;102645.66;;;3.15;100.00
84190;BME280;74321;53.406;8.146;2024-03-07T17:48:39;102632.47;;;2.91;100.00
84190;BME280;74321;53.406;8.146;2024-03-07T17:53:41;102634.41;;;2.65;100.00
84190;BME280;74321;53.406;8.146;2024-03-07T17:58:45;102630.91;;;2.48;100.00
84190;BME280;74321;53.406;8.146;2024-03-07T18:03:47;102631.31;;;2.41;100.00
84190;BME280;74321;53.406;8.146;2024-03-07T18:08:53;102630.91;;;2.20;100.00
84190;BME280;74321;53.406;8.146;2024-03-07T18:14:01;102616.81;;;2.24;100.00
84190;BME280;74321;53.406;8.146;2024-03-07T18:19:03;102618.44;;;2.09;100.00
84190;BME280;74321;53.406;8.146;2024-03-07T18:24:09;102631.25;;;1.84;100.00
84190;BME280;74321;53.406;8.146;2024-03-07T18:29:11;102627.72;;;1.82;100.00
84190;BME280;74321;53.406;8.146;2024-03-07T18:34:14;102614.44;;;1.71;100.00
84190;BME280;74321;53.406;8.146;2024-03-07T18:39:16;102610.34;;;1.73;100.00
84190;BME280;74321;53.406;8.146;2024-03-07T18:44:18;102617.75;;;1.83;100.00
84190;BME280;74321;53.406;8.146;2024-03-07T18:49:20;102618.06;;;2.03;100.00
84190;BME280;74321;53.406;8.146;2024-03-07T18:54:23;102609.50;;;2.01;100.00
84190;BME280;74321;53.406;8.146;2024-03-07T18:59:26;102625.13;;;1.80;100.00
84190;BME280;74321;53.406;8.146;2024-03-07T19:04:28;102608.97;;;2.06;100.00
84190;BME280;74321;53.406;8.146;2024-03-07T19:09:31;102618.22;;;2.06;100.00
84190;BME280;74321;53.406;8.146;2024-03-07T19:14:34;102608.03;;;1.76;100.00
84190;BME280;74321;53.406;8.146;2024-03-07T19:19:36;102608.28;;;1.81;100.00
84190;BME280;74321;53.406;8.146;2024-03-07T19:24:42;102604.63;;;1.76;100.00
84190;BME280;74321;53.406;8.146;2024-03-07T19:29:45;102594.22;;;1.84;100.00
84190;BME280;74321;53.406;8.146;2024-03-07T19:34:54;102594.47;;;1.61;100.00
84190;BME280;74321;53.406;8.146;2024-03-07T19:39:56;102582.63;;;1.47;100.00
84190;BME280;74321;53.406;8.146;2024-03-07T19:45:00;102558.69;;;1.13;100.00
84190;BME280;74321;53.406;8.146;2024-03-07T19:50:04;102586.75;;;1.05;100.00
84190;BME280;74321;53.406;8.146;2024-03-07T19:55:06;102579.09;;;1.03;100.00
84190;BME280;74321;53.406;8.146;2024-03-07T20:00:11;102589.06;;;1.15;100.00
84190;BME280;74321;53.406;8.146;2024-03-07T20:05:23;102585.09;;;1.05;100.00
84190;BME280;74321;53.406;8.146;2024-03-07T20:10:28;102592.56;;;0.77;100.00
84190;BME280;74321;53.406;8.146;2024-03-07T20:15:34;102596.16;;;0.68;100.00
84190;BME280;74321;53.406;8.146;2024-03-07T20:20:36;102594.88;;;0.74;100.00
84190;BME280;74321;53.406;8.146;2024-03-07T20:25:38;102586.66;;;0.77;100.00
84190;BME280;74321;53.406;8.146;2024-03-07T20:30:41;102585.41;;;0.83;100.00
84190;BME280;74321;53.406;8.146;2024-03-07T20:35:47;102575.25;;;0.57;100.00
84190;BME280;74321;53.406;8.146;2024-03-07T20:40:50;102566.03;;;0.44;100.00
84190;BME280;74321;53.406;8.146;2024-03-07T20:45:59;102569.56;;;0.60;100.00
84190;BME280;74321;53.406;8.146;2024-03-07T20:51:09;102566.47;;;0.90;100.00
84190;BME280;74321;53.406;8.146;2024-03-07T20:56:13;102566.06;;;1.24;100.00
84190;BME280;74321;53.406;8.146;2024-03-07T21:01:18;102558.44;;;1.78;100.00
84190;BME280;74321;53.406;8.146;2024-03-07T21:06:22;102561.38;;;1.99;100.00
84190;BME280;74321;53.406;8.146;2024-03-07T21:11:26;102552.91;;;1.98;100.00
84190;BME280;74321;53.406;8.146;2024-03-07T21:16:31;102536.94;;;1.85;100.00
84190;BME280;74321;53.406;8.146;2024-03-07T21:21:35;102536.31;;;1.89;100.00
84190;BME280;74321;53.406;8.146;2024-03-07T21:26:38;102538.63;;;1.99;100.00
84190;BME280;74321;53.406;8.146;2024-03-07T21:31:40;102541.22;;;1.86;100.00
84190;BME280;74321;53.406;8.146;2024-03-07T21:36:43;102551.38;;;2.01;100.00
84190;BME280;74321;53.406;8.146;2024-03-07T21:41:48;102541.59;;;1.92;100.00
84190;BME280;74321;53.406;8.146;2024-03-07T21:46:57;102537.81;;;1.85;100.00
84190;BME280;74321;53.406;8.146;2024-03-07T21:52:11;102547.84;;;1.84;100.00
84190;BME280;74321;53.406;8.146;2024-03-07T21:57:17;102539.00;;;1.77;100.00
84190;BME280;74321;53.406;8.146;2024-03-07T22:02:19;102527.91;;;1.60;100.00
84190;BME280;74321;53.406;8.146;2024-03-07T22:07:29;102533.13;;;1.63;100.00
84190;BME280;74321;53.406;8.146;2024-03-07T22:12:48;102498.16;;;1.42;100.00
84190;BME280;74321;53.406;8.146;2024-03-07T22:17:54;102523.03;;;1.63;100.00
84190;BME280;74321;53.406;8.146;2024-03-07T22:22:56;102525.34;;;1.32;100.00
84190;BME280;74321;53.406;8.146;2024-03-07T22:27:58;102517.19;;;1.36;100.00
84190;BME280;74321;53.406;8.146;2024-03-07T22:33:03;102516.78;;;1.44;100.00
84190;BME280;74321;53.406;8.146;2024-03-07T22:38:06;102508.59;;;1.48;100.00
84190;BME280;74321;53.406;8.146;2024-03-07T22:43:10;102505.41;;;1.50;100.00
84190;BME280;74321;53.406;8.146;2024-03-07T22:48:12;102507.06;;;1.50;100.00
84190;BME280;74321;53.406;8.146;2024-03-07T22:53:14;102488.16;;;1.30;100.00
84190;BME280;74321;53.406;8.146;2024-03-07T22:58:16;102483.88;;;1.42;100.00
84190;BME280;74321;53.406;8.146;2024-03-07T23:03:18;102470.94;;;1.37;100.00
84190;BME280;74321;53.406;8.146;2024-03-07T23:08:20;102479.38;;;1.38;100.00
84190;BME280;74321;53.406;8.146;2024-03-07T23:13:22;102475.53;;;1.30;100.00
84190;BME280;74321;53.406;8.146;2024-03-07T23:18:25;102463.03;;;1.18;100.00
84190;BME280;74321;53.406;8.146;2024-03-07T23:23:27;102478.84;;;1.29;100.00
84190;BME280;74321;53.406;8.146;2024-03-07T23:28:29;102466.28;;;1.02;100.00
84190;BME280;74321;53.406;8.146;2024-03-07T23:33:31;102460.59;;;0.92;100.00
84190;BME280;74321;53.406;8.146;2024-03-07T23:38:34;102470.38;;;1.00;100.00
84190;BME280;74321;53.406;8.146;2024-03-07T23:43:37;102466.28;;;0.89;100.00
84190;BME280;74321;53.406;8.146;2024-03-07T23:48:41;102464.28;;;0.70;100.00
84190;BME280;74321;53.406;8.146;2024-03-07T23:53:45;102472.91;;;0.87;100.00
84190;BME280;74321;53.406;8.146;2024-03-07T23:58:47;102460.72;;;0.67;100.00
